createdAt,value
2023-04-11T00:00:15.524Z,15.88
2023-04-11T00:02:42.319Z,10.35
2023-04-11T00:05:09.790Z,14.68
2023-04-11T00:07:36.441Z,13.15
2023-04-11T00:10:03.253Z,12.35
2023-04-11T00:12:29.967Z,9.50
2023-04-11T00:14:56.538Z,10.63
2023-04-11T00:17:23.772Z,8.13
2023-04-11T00:19:53.372Z,9.35
2023-04-11T00:22:20.096Z,9.48
2023-04-11T00:24:46.666Z,9.80
2023-04-11T00:27:13.448Z,9.27
2023-04-11T00:29:40.896Z,9.15
2023-04-11T00:32:07.878Z,8.38
2023-04-11T00:34:34.492Z,12.55
2023-04-11T00:37:01.709Z,8.82
2023-04-11T00:39:30.485Z,9.07
2023-04-11T00:42:07.251Z,8.98
2023-04-11T00:44:36.943Z,8.27
2023-04-11T00:47:06.686Z,8.45
2023-04-11T00:49:33.398Z,9.65
2023-04-11T00:52:00.511Z,8.80
2023-04-11T00:54:30.473Z,10.30
2023-04-11T00:57:01.789Z,9.30
2023-04-11T00:59:29.093Z,8.40
2023-04-11T01:01:56.515Z,6.93
2023-04-11T01:04:24.051Z,9.80
2023-04-11T01:06:53.045Z,10.43
2023-04-11T01:09:25.637Z,9.18
2023-04-11T01:11:52.406Z,10.57
2023-04-11T01:14:19.416Z,9.43
2023-04-11T01:16:50.792Z,8.30
2023-04-11T01:19:21.439Z,10.20
2023-04-11T01:21:48.499Z,8.20
2023-04-11T01:24:15.520Z,9.60
2023-04-11T01:26:42.286Z,10.57
2023-04-11T01:29:08.967Z,10.45
2023-04-11T01:31:35.676Z,12.75
2023-04-11T01:34:02.344Z,11.05
2023-04-11T01:36:29.594Z,11.55
2023-04-11T01:38:56.481Z,11.90
2023-04-11T01:41:24.784Z,13.80
2023-04-11T01:43:51.437Z,10.43
2023-04-11T01:46:18.060Z,9.10
2023-04-11T01:48:45.882Z,10.95
2023-04-11T01:51:12.820Z,10.73
2023-04-11T01:53:39.464Z,9.88
2023-04-11T01:56:06.992Z,14.85
2023-04-11T01:58:33.624Z,15.52
2023-04-11T02:01:00.422Z,16.05
2023-04-11T02:03:27.298Z,10.93
2023-04-11T02:05:54.003Z,10.60
2023-04-11T02:08:20.682Z,14.23
2023-04-11T02:10:47.316Z,12.75
2023-04-11T02:13:13.960Z,14.38
2023-04-11T02:15:40.714Z,12.27
2023-04-11T02:18:09.404Z,13.10
2023-04-11T02:20:40.602Z,10.32
2023-04-11T02:23:07.482Z,11.13
2023-04-11T02:25:34.192Z,10.80
2023-04-11T02:28:00.871Z,10.65
2023-04-11T02:30:27.611Z,13.50
2023-04-11T02:32:54.269Z,9.80
2023-04-11T02:35:21.033Z,11.57
2023-04-11T02:37:47.671Z,14.00
2023-04-11T02:40:14.369Z,12.77
2023-04-11T02:42:43.205Z,15.32
2023-04-11T02:45:10.633Z,13.32
2023-04-11T02:47:37.841Z,12.40
2023-04-11T02:50:05.004Z,13.20
2023-04-11T02:52:33.666Z,12.90
2023-04-11T02:55:00.600Z,16.92
2023-04-11T02:57:27.801Z,13.02
2023-04-11T02:59:54.453Z,11.98
2023-04-11T03:02:23.604Z,14.02
2023-04-11T03:04:50.456Z,13.88
2023-04-11T03:07:17.052Z,11.38
2023-04-11T03:09:43.760Z,12.50
2023-04-11T03:12:10.478Z,15.05
2023-04-11T03:14:37.053Z,15.35
2023-04-11T03:17:03.747Z,14.00
2023-04-11T03:19:30.440Z,14.63
2023-04-11T03:21:57.110Z,13.02
2023-04-11T03:24:23.754Z,13.48
2023-04-11T03:26:50.580Z,11.57
2023-04-11T03:29:17.265Z,12.75
2023-04-11T03:31:44.059Z,16.88
2023-04-11T03:34:10.703Z,12.45
2023-04-11T03:36:37.317Z,13.00
2023-04-11T03:39:04.263Z,14.32
2023-04-11T03:41:30.907Z,13.10
2023-04-11T03:43:57.582Z,13.18
2023-04-11T03:46:24.198Z,12.60
2023-04-11T03:48:50.789Z,15.88
2023-04-11T03:51:17.462Z,13.07
2023-04-11T03:53:44.141Z,16.60
2023-04-11T03:56:10.815Z,15.90
2023-04-11T03:58:37.434Z,19.15
2023-04-11T04:01:04.289Z,28.33
2023-04-11T04:03:31.247Z,23.23
2023-04-11T04:05:58.015Z,20.85
2023-04-11T04:08:24.657Z,21.55
2023-04-11T04:10:51.220Z,16.83
2023-04-11T04:13:17.989Z,13.38
2023-04-11T04:15:44.675Z,15.40
2023-04-11T04:18:11.413Z,16.65
2023-04-11T04:20:38.044Z,17.45
2023-04-11T04:23:04.835Z,17.00
2023-04-11T04:25:31.511Z,17.70
2023-04-11T04:28:00.938Z,19.17
2023-04-11T04:30:28.995Z,21.23
2023-04-11T04:32:59.116Z,23.05
2023-04-11T04:35:26.659Z,22.67
2023-04-11T04:37:54.188Z,28.65
2023-04-11T04:40:21.426Z,22.10
2023-04-11T04:42:58.864Z,20.77
2023-04-11T04:45:26.403Z,21.13
2023-04-11T04:47:53.258Z,22.30
2023-04-11T04:50:20.504Z,22.80
2023-04-11T04:52:47.221Z,21.58
2023-04-11T04:55:14.232Z,36.42
2023-04-11T04:57:40.943Z,29.45
2023-04-11T05:00:09.792Z,23.15
2023-04-11T05:02:38.012Z,23.10
2023-04-11T05:05:05.134Z,24.90
2023-04-11T05:07:31.865Z,22.83
2023-04-11T05:09:58.493Z,21.20
2023-04-11T05:12:27.265Z,24.15
2023-04-11T05:14:55.527Z,27.13
2023-04-11T05:17:25.385Z,26.98
2023-04-11T05:19:52.560Z,22.83
2023-04-11T05:22:19.205Z,20.48
2023-04-11T05:24:45.857Z,19.60
2023-04-11T05:27:13.443Z,23.15
2023-04-11T05:29:40.488Z,19.45
2023-04-11T05:32:07.181Z,24.23
2023-04-11T05:34:34.472Z,23.83
2023-04-11T05:37:01.470Z,20.35
2023-04-11T05:39:28.235Z,28.85
2023-04-11T05:41:54.992Z,24.00
2023-04-11T05:44:21.631Z,18.70
2023-04-11T05:46:48.235Z,21.00
2023-04-11T05:49:14.930Z,20.58
2023-04-11T05:51:41.594Z,22.08
2023-04-11T05:54:08.215Z,30.33
2023-04-11T05:56:35.400Z,36.45
2023-04-11T05:59:02.127Z,21.67
2023-04-11T06:01:30.296Z,37.28
2023-04-11T06:03:57.718Z,20.15
2023-04-11T06:06:24.813Z,18.83
2023-04-11T06:08:51.671Z,20.80
2023-04-11T06:11:18.399Z,21.83
2023-04-11T06:13:45.112Z,22.20
2023-04-11T06:16:11.944Z,16.35
2023-04-11T06:18:38.591Z,18.42
2023-04-11T06:21:05.799Z,16.55
2023-04-11T06:23:32.495Z,14.10
2023-04-11T06:25:59.220Z,16.95
2023-04-11T06:28:25.886Z,26.77
2023-04-11T06:30:52.650Z,14.73
2023-04-11T06:33:19.311Z,14.38
2023-04-11T06:35:46.326Z,14.38
2023-04-11T06:38:12.975Z,17.83
2023-04-11T06:40:39.593Z,18.85
2023-04-11T06:43:06.342Z,17.83
2023-04-11T06:45:33.015Z,19.35
2023-04-11T06:47:59.711Z,18.85
2023-04-11T06:50:26.548Z,28.73
2023-04-11T06:52:53.229Z,19.95
2023-04-11T06:55:19.916Z,16.95
2023-04-11T06:57:46.649Z,15.68
2023-04-11T07:00:13.735Z,23.67
2023-04-11T07:02:41.162Z,62.35
2023-04-11T07:05:09.411Z,35.63
2023-04-11T07:07:36.414Z,32.55
2023-04-11T07:10:03.894Z,22.80
2023-04-11T07:12:30.640Z,13.75
2023-04-11T07:14:57.233Z,25.25
2023-04-11T07:17:24.322Z,15.70
2023-04-11T07:19:51.064Z,25.42
2023-04-11T07:22:17.812Z,28.77
2023-04-11T07:24:46.703Z,58.78
2023-04-11T07:27:14.454Z,64.35
2023-04-11T07:29:41.268Z,74.47
2023-04-11T07:32:07.963Z,14.75
2023-04-11T07:34:34.587Z,87.05
2023-04-11T07:37:01.374Z,27.48
2023-04-11T07:39:28.155Z,27.33
2023-04-11T07:41:54.783Z,69.15
2023-04-11T07:44:22.162Z,38.67
2023-04-11T07:46:49.379Z,49.45
2023-04-11T07:49:16.091Z,68.00
2023-04-11T07:51:42.905Z,40.50
2023-04-11T07:54:09.758Z,23.75
2023-04-11T07:56:36.467Z,29.80
2023-04-11T07:59:03.330Z,43.50
2023-04-11T08:01:29.888Z,41.60
2023-04-11T08:03:57.157Z,34.17
2023-04-11T08:06:24.254Z,76.72
2023-04-11T08:08:50.934Z,222.48
2023-04-11T08:11:17.670Z,126.97
2023-04-11T08:13:44.401Z,80.53
2023-04-11T08:16:11.840Z,32.30
2023-04-11T08:18:42.261Z,48.83
2023-04-11T08:21:12.240Z,125.68
2023-04-11T08:23:42.831Z,36.58
2023-04-11T08:26:09.935Z,66.30
2023-04-11T08:28:36.612Z,40.70
2023-04-11T08:31:04.535Z,49.60
2023-04-11T08:33:31.531Z,46.85
2023-04-11T08:35:58.310Z,40.83
2023-04-11T08:38:24.952Z,95.70
2023-04-11T08:40:51.880Z,53.85
2023-04-11T08:43:19.221Z,39.67
2023-04-11T08:45:46.036Z,28.98
2023-04-11T08:48:12.723Z,32.00
2023-04-11T08:50:40.840Z,51.78
2023-04-11T08:53:08.415Z,16.60
2023-04-11T08:55:35.094Z,27.02
2023-04-11T08:58:02.982Z,18.00
2023-04-11T09:00:32.374Z,24.50
2023-04-11T09:03:03.439Z,26.98
2023-04-11T09:05:31.855Z,24.20
2023-04-11T09:08:08.205Z,20.50
2023-04-11T09:10:35.613Z,21.52
2023-04-11T09:13:13.294Z,24.73
2023-04-11T09:15:40.555Z,11.65
2023-04-11T09:18:07.344Z,10.50
2023-04-11T09:20:34.033Z,15.75
2023-04-11T09:23:00.747Z,14.63
2023-04-11T09:25:27.650Z,34.90
2023-04-11T09:28:14.568Z,22.38
2023-04-11T09:30:52.325Z,23.38
2023-04-11T09:33:22.530Z,19.83
2023-04-11T09:35:50.900Z,38.60
2023-04-11T09:38:36.592Z,40.58
2023-04-11T09:41:04.231Z,30.92
2023-04-11T09:43:53.140Z,36.60
2023-04-11T09:46:21.333Z,15.27
2023-04-11T09:48:48.961Z,32.85
2023-04-11T09:51:31.821Z,12.70
2023-04-11T09:54:01.806Z,19.70
2023-04-11T09:56:29.003Z,16.73
2023-04-11T09:58:56.524Z,21.35
2023-04-11T10:01:24.501Z,27.40
2023-04-11T10:03:51.501Z,14.68
2023-04-11T10:06:55.268Z,17.02
2023-04-11T10:09:21.953Z,16.35
2023-04-11T10:11:48.640Z,14.07
2023-04-11T10:14:37.352Z,18.55
2023-04-11T10:17:20.482Z,13.57
2023-04-11T10:19:48.788Z,14.13
2023-04-11T10:22:44.032Z,10.77
2023-04-11T10:25:22.495Z,44.85
2023-04-11T10:27:53.644Z,15.60
2023-04-11T10:30:39.174Z,18.40
2023-04-11T10:33:11.713Z,10.70
2023-04-11T10:36:05.143Z,8.70
2023-04-11T10:38:43.920Z,14.60
2023-04-11T10:41:22.821Z,14.23
2023-04-11T10:43:49.844Z,12.10
2023-04-11T10:46:21.540Z,23.60
2023-04-11T10:49:01.289Z,11.55
2023-04-11T10:51:28.857Z,20.40
2023-04-11T10:53:59.396Z,17.85
2023-04-11T10:56:45.847Z,21.30
2023-04-11T10:59:31.175Z,11.85
2023-04-11T11:01:58.699Z,15.10
2023-04-11T11:04:37.492Z,9.50
2023-04-11T11:07:05.905Z,9.95
2023-04-11T11:09:33.082Z,16.77
2023-04-11T11:12:09.062Z,26.88
2023-04-11T11:14:36.200Z,16.08
2023-04-11T11:17:03.274Z,26.73
2023-04-11T11:19:31.066Z,11.80
2023-04-11T11:22:03.548Z,16.10
2023-04-11T11:24:30.634Z,22.45
2023-04-11T11:26:57.404Z,9.85
2023-04-11T11:29:37.945Z,16.17
2023-04-11T11:32:04.879Z,26.88
2023-04-11T11:34:32.641Z,9.68
2023-04-11T11:37:01.495Z,10.98
2023-04-11T11:39:29.018Z,9.38
2023-04-11T11:41:56.316Z,8.13
2023-04-11T11:44:24.022Z,11.70
2023-04-11T11:47:12.365Z,6.43
2023-04-11T11:49:48.438Z,9.02
2023-04-11T11:52:34.454Z,6.90
2023-04-11T11:55:08.105Z,7.38
2023-04-11T11:57:46.052Z,10.52
2023-04-11T12:00:13.154Z,6.75
2023-04-11T12:02:40.659Z,7.32
2023-04-11T12:05:08.585Z,5.78
2023-04-11T12:07:37.291Z,6.95
2023-04-11T12:10:09.479Z,5.43
2023-04-11T12:12:37.732Z,5.38
2023-04-11T12:15:19.444Z,5.90
2023-04-11T12:17:50.462Z,8.02
2023-04-11T12:20:17.637Z,5.82
2023-04-11T12:22:44.215Z,6.95
2023-04-11T12:25:12.086Z,10.85
2023-04-11T12:27:40.378Z,8.90
2023-04-11T12:30:07.769Z,8.27
2023-04-11T12:32:34.537Z,9.35
2023-04-11T12:35:02.027Z,12.60
2023-04-11T12:37:28.694Z,14.65
2023-04-11T12:39:55.534Z,15.00
2023-04-11T12:42:26.732Z,13.35
2023-04-11T12:44:53.999Z,7.85
2023-04-11T12:47:20.763Z,15.18
2023-04-11T12:49:47.588Z,12.80
2023-04-11T12:52:14.259Z,9.55
2023-04-11T12:54:41.167Z,13.00
2023-04-11T12:57:07.942Z,11.52
2023-04-11T12:59:34.601Z,10.30
2023-04-11T13:02:01.636Z,10.07
2023-04-11T13:04:28.612Z,9.77
2023-04-11T13:07:00.749Z,9.40
2023-04-11T13:09:31.530Z,9.85
2023-04-11T13:11:58.622Z,8.75
2023-04-11T13:14:25.362Z,9.70
2023-04-11T13:16:52.028Z,10.18
2023-04-11T13:19:18.750Z,11.32
2023-04-11T13:21:45.400Z,11.20
2023-04-11T13:24:11.986Z,8.60
2023-04-11T13:26:39.517Z,9.75
2023-04-11T13:29:06.774Z,11.13
2023-04-11T13:31:33.871Z,10.93
2023-04-11T13:34:01.654Z,13.30
2023-04-11T13:36:28.612Z,13.10
2023-04-11T13:38:56.203Z,10.13
2023-04-11T13:41:23.765Z,12.90
2023-04-11T13:43:53.385Z,10.48
2023-04-11T13:46:21.615Z,9.38
2023-04-11T13:48:48.318Z,12.57
2023-04-11T13:51:14.967Z,10.13
2023-04-11T13:53:41.666Z,15.68
2023-04-11T13:56:08.584Z,14.75
2023-04-11T13:58:35.497Z,17.42
2023-04-11T14:01:02.227Z,17.67
2023-04-11T14:03:33.243Z,13.60
2023-04-11T14:06:00.761Z,19.95
2023-04-11T14:08:28.241Z,17.35
2023-04-11T14:10:55.253Z,22.40
2023-04-11T14:13:21.849Z,20.67
2023-04-11T14:15:54.862Z,16.58
2023-04-11T14:18:27.974Z,23.92
2023-04-11T14:20:56.662Z,21.08
2023-04-11T14:23:23.400Z,13.50
2023-04-11T14:25:50.710Z,16.98
2023-04-11T14:28:18.340Z,19.95
2023-04-11T14:30:45.047Z,26.05
2023-04-11T14:33:11.889Z,11.95
2023-04-11T14:35:38.610Z,15.95
2023-04-11T14:38:05.736Z,19.27
2023-04-11T14:40:32.364Z,23.88
2023-04-11T14:42:59.319Z,23.83
2023-04-11T14:45:26.199Z,19.23
2023-04-11T14:47:53.014Z,10.27
2023-04-11T14:50:19.732Z,10.32
2023-04-11T14:52:48.257Z,10.48
2023-04-11T14:55:14.961Z,10.88
2023-04-11T14:57:48.660Z,10.68
2023-04-11T15:00:19.482Z,9.23
2023-04-11T15:02:47.182Z,9.07
2023-04-11T15:05:16.127Z,15.32
2023-04-11T15:07:43.049Z,15.10
2023-04-11T15:10:10.082Z,6.38
2023-04-11T15:12:36.728Z,15.35
2023-04-11T15:15:04.717Z,14.25
2023-04-11T15:17:31.345Z,19.02
2023-04-11T15:19:58.058Z,13.85
2023-04-11T15:22:24.682Z,11.38
2023-04-11T15:24:51.449Z,13.18
2023-04-11T15:27:18.120Z,14.07
2023-04-11T15:29:44.818Z,28.42
2023-04-11T15:32:11.646Z,22.35
2023-04-11T15:34:40.270Z,19.40
2023-04-11T15:37:11.503Z,12.90
2023-04-11T15:39:38.235Z,18.27
2023-04-11T15:42:05.063Z,16.02
2023-04-11T15:44:31.849Z,14.30
2023-04-11T15:46:58.775Z,13.80
2023-04-11T15:49:25.497Z,26.23
2023-04-11T15:51:52.136Z,25.27
2023-04-11T15:54:18.826Z,14.10
2023-04-11T15:56:45.755Z,13.23
2023-04-11T15:59:13.049Z,13.77
2023-04-11T16:01:40.452Z,19.60
2023-04-11T16:04:07.491Z,18.13
2023-04-11T16:06:34.218Z,18.75
2023-04-11T16:09:00.869Z,10.75
2023-04-11T16:11:27.640Z,16.13
2023-04-11T16:13:54.577Z,17.50
2023-04-11T16:16:21.650Z,16.50
2023-04-11T16:18:48.341Z,19.83
2023-04-11T16:21:15.841Z,16.50
2023-04-11T16:23:42.962Z,22.05
2023-04-11T16:26:10.372Z,24.98
2023-04-11T16:28:37.022Z,26.73
2023-04-11T16:31:03.653Z,20.50
2023-04-11T16:33:30.268Z,19.73
2023-04-11T16:35:56.935Z,17.75
2023-04-11T16:38:23.728Z,16.70
2023-04-11T16:40:50.322Z,17.55
2023-04-11T16:43:16.929Z,19.60
2023-04-11T16:45:43.601Z,25.90
2023-04-11T16:48:10.430Z,21.40
2023-04-11T16:50:37.133Z,18.08
2023-04-11T16:53:03.993Z,21.38
2023-04-11T16:55:30.651Z,22.80
2023-04-11T16:57:57.318Z,26.73
2023-04-11T17:00:24.566Z,21.27
2023-04-11T17:02:51.742Z,23.15
2023-04-11T17:05:19.181Z,28.38
2023-04-11T17:07:46.367Z,27.23
2023-04-11T17:10:13.081Z,26.02
2023-04-11T17:12:39.681Z,24.08
2023-04-11T17:15:08.437Z,32.22
2023-04-11T17:17:35.287Z,30.17
2023-04-11T17:20:09.230Z,18.90
2023-04-11T17:22:36.653Z,21.13
2023-04-11T17:25:04.227Z,27.77
2023-04-11T17:27:31.254Z,30.13
2023-04-11T17:29:57.871Z,24.77
2023-04-11T17:32:24.496Z,17.02
2023-04-11T17:34:51.094Z,18.27
2023-04-11T17:37:17.889Z,18.88
2023-04-11T17:39:46.024Z,20.52
2023-04-11T17:42:13.987Z,19.48
2023-04-11T17:44:40.954Z,23.27
2023-04-11T17:47:08.067Z,18.17
2023-04-11T17:49:34.777Z,17.60
2023-04-11T17:52:01.796Z,21.23
2023-04-11T17:54:29.446Z,25.73
2023-04-11T17:56:56.465Z,19.08
2023-04-11T17:59:24.314Z,19.88
2023-04-11T18:01:53.475Z,21.90
2023-04-11T18:04:20.431Z,19.98
2023-04-11T18:06:47.574Z,19.00
2023-04-11T18:09:15.819Z,22.67
2023-04-11T18:11:43.852Z,18.23
2023-04-11T18:14:10.783Z,20.65
2023-04-11T18:16:39.054Z,13.88
2023-04-11T18:19:06.024Z,15.75
2023-04-11T18:21:32.691Z,17.25
2023-04-11T18:23:59.393Z,11.20
2023-04-11T18:26:26.088Z,13.05
2023-04-11T18:28:52.657Z,17.40
2023-04-11T18:31:19.417Z,13.95
2023-04-11T18:33:47.633Z,15.88
2023-04-11T18:36:14.919Z,12.30
2023-04-11T18:38:42.564Z,14.02
2023-04-11T18:41:09.585Z,14.00
2023-04-11T18:43:38.317Z,13.18
2023-04-11T18:46:07.572Z,17.50
2023-04-11T18:48:34.679Z,13.00
2023-04-11T18:51:01.454Z,16.05
2023-04-11T18:53:29.976Z,20.17
2023-04-11T18:55:56.786Z,16.48
2023-04-11T18:58:25.572Z,18.52
2023-04-11T19:00:52.987Z,18.05
2023-04-11T19:03:19.895Z,16.50
2023-04-11T19:05:48.158Z,13.38
2023-04-11T19:08:15.013Z,14.90
2023-04-11T19:10:41.686Z,17.02
2023-04-11T19:13:08.838Z,15.40
2023-04-11T19:15:36.467Z,13.18
2023-04-11T19:18:03.211Z,16.38
2023-04-11T19:20:30.389Z,17.25
2023-04-11T19:22:57.285Z,16.30
2023-04-11T19:25:24.318Z,14.18
2023-04-11T19:27:51.564Z,13.45
2023-04-11T19:30:18.216Z,18.88
2023-04-11T19:32:47.493Z,13.57
2023-04-11T19:35:14.513Z,14.10
2023-04-11T19:37:41.829Z,19.75
2023-04-11T19:40:14.081Z,15.85
2023-04-11T19:42:41.787Z,19.17
2023-04-11T19:45:11.818Z,17.48
2023-04-11T19:47:39.895Z,14.85
2023-04-11T19:50:09.250Z,14.38
2023-04-11T19:52:35.939Z,14.43
2023-04-11T19:55:02.612Z,16.15
2023-04-11T19:57:29.487Z,11.57
2023-04-11T19:59:57.384Z,12.88
2023-04-11T20:02:24.242Z,9.88
2023-04-11T20:04:52.148Z,14.75
2023-04-11T20:07:18.814Z,8.55
2023-04-11T20:09:45.655Z,15.65
2023-04-11T20:12:13.356Z,14.02
2023-04-11T20:14:40.052Z,12.05
2023-04-11T20:17:08.530Z,15.38
2023-04-11T20:19:37.676Z,15.55
2023-04-11T20:22:04.686Z,10.50
2023-04-11T20:24:31.573Z,14.35
2023-04-11T20:26:58.241Z,13.88
2023-04-11T20:31:57.307Z,11.65
2023-04-11T20:34:23.957Z,11.70
2023-04-11T20:36:50.561Z,10.45
2023-04-11T20:39:17.273Z,13.48
2023-04-11T20:41:44.029Z,14.82
2023-04-11T20:44:10.692Z,13.73
2023-04-11T20:46:39.665Z,16.30
2023-04-11T20:49:06.912Z,15.45
2023-04-11T20:51:34.178Z,13.95
2023-04-11T20:54:00.864Z,15.95
2023-04-11T20:56:27.602Z,11.77
2023-04-11T20:58:54.762Z,19.00
2023-04-11T21:01:22.600Z,10.10
2023-04-11T21:03:51.349Z,6.93
2023-04-11T21:06:18.262Z,10.88
2023-04-11T21:08:44.862Z,10.32
2023-04-11T21:11:11.586Z,13.65
2023-04-11T21:13:38.193Z,11.15
2023-04-11T21:16:05.114Z,10.40
2023-04-11T21:18:31.830Z,11.88
2023-04-11T21:20:58.524Z,12.63
2023-04-11T21:23:25.408Z,10.35
2023-04-11T21:25:52.120Z,8.27
2023-04-11T21:28:18.732Z,11.90
2023-04-11T21:30:45.320Z,10.43
2023-04-11T21:33:12.055Z,12.40
2023-04-11T21:35:38.819Z,10.65
2023-04-11T21:38:05.557Z,10.93
2023-04-11T21:40:32.307Z,14.85
2023-04-11T21:42:58.965Z,12.75
2023-04-11T21:45:25.866Z,14.13
2023-04-11T21:47:52.584Z,18.52
2023-04-11T21:50:19.377Z,14.38
2023-04-11T21:52:46.488Z,10.52
2023-04-11T21:55:14.521Z,11.50
2023-04-11T21:57:41.358Z,12.40
2023-04-11T22:00:10.749Z,10.48
2023-04-11T22:02:37.996Z,12.50
2023-04-11T22:05:06.991Z,9.90
2023-04-11T22:07:38.325Z,13.00
2023-04-11T22:10:09.743Z,13.05
2023-04-11T22:12:36.668Z,12.45
2023-04-11T22:15:03.966Z,8.90
2023-04-11T22:17:34.076Z,11.07
2023-04-11T22:20:00.819Z,7.68
2023-04-11T22:22:30.622Z,10.77
2023-04-11T22:25:00.011Z,10.18
2023-04-11T22:27:27.299Z,11.27
2023-04-11T22:29:56.179Z,12.57
2023-04-11T22:32:23.769Z,10.63
2023-04-11T22:34:50.597Z,12.60
2023-04-11T22:37:17.423Z,14.70
2023-04-11T22:39:44.095Z,10.75
2023-04-11T22:42:11.815Z,16.77
2023-04-11T22:44:38.435Z,15.65
2023-04-11T22:47:06.831Z,16.10
2023-04-11T22:49:40.463Z,17.52
2023-04-11T22:52:08.129Z,19.80
2023-04-11T22:54:35.227Z,16.98
2023-04-11T22:57:02.045Z,13.65
2023-04-11T22:59:28.748Z,17.45
2023-04-11T23:01:55.550Z,9.15
2023-04-11T23:04:22.384Z,11.48
2023-04-11T23:06:50.073Z,12.68
2023-04-11T23:09:19.953Z,10.45
2023-04-11T23:11:47.117Z,10.20
2023-04-11T23:14:15.317Z,10.80
2023-04-11T23:16:43.313Z,11.18
2023-04-11T23:19:10.440Z,9.25
2023-04-11T23:21:39.867Z,12.35
2023-04-11T23:24:09.884Z,13.57
2023-04-11T23:26:37.102Z,9.80
2023-04-11T23:29:03.888Z,9.88
2023-04-11T23:31:31.682Z,10.60
2023-04-11T23:33:58.830Z,11.18
2023-04-11T23:36:27.516Z,9.77
2023-04-11T23:38:54.425Z,8.30
2023-04-11T23:41:21.259Z,10.45
2023-04-11T23:43:47.904Z,14.90
2023-04-11T23:46:15.098Z,6.72
2023-04-11T23:48:42.363Z,12.02
2023-04-11T23:51:09.059Z,7.20
2023-04-11T23:53:35.803Z,9.48
2023-04-11T23:56:02.413Z,12.20
2023-04-11T23:58:29.056Z,14.70
